Baldwin, Wisconsin
Current Conditions -  °F | °C
As of 4:55 PM on Thursday 23 Oct 2014 (Local Time) from KRNH Reporting Station
Clear Clear  
Wind Chill: 60°   Ceiling: Unl
Heat Index: 60°   Visibility: 10mi
Dew Point: 50°   Wind: 6mph
Humidity: 70%   Direction: 160°SSE
Pressure: 29.97"   Gusts: NA
Location:  44.97°N, 92.37°W
Report Text: KRNH 232155Z AUTO 16005KT 10SM CLR 16/10 A2997 RMK AO2 T01550101
Loading
Personal Weather Stations






























Interactive Weather Map
Tropical Storm Tracking
New forecast layout! Learn more

10-Day Weather Forecast

Advertisements
Track Severe Weather on mobile